Pays
Station

 

Conditions  météo  pour  Skagway  -  Etats-Unis    Etats-Unis

  
-3 °C
    
 
 

METAR pour Skagway :

PAGY 212153Z AUTO 00000KT 4SM BR OVC023 M03/M06 A2988 RMK AO2 SNE51 SLP119 P0000 T10331056 TSNO

 

Voici le bulletin pour Skagway - Etats-Unis.
 
Le bulletin a été fait il y a 21 minutes, à 21:53 UTC .
Le vent était calme.
 
La température était de -3 °C, avec un point de rosée à -6 °C.
La pression atmosphérique était de 1012 hPa.
L'humidité relative était de 79.7%.
 
Le ciel était nuageux à partir d'une hauteur de 701 mètres
 
La visibilité globale était de 6.4 kilomètres.
 
Actuellement brume.

 
 
 

Pays :   A   B   C   D   E   F   G   H   I   J   K   L   M   N   O   P   Q   R   S   T   U   V   W   Y   Z

 

Partenaires :  Info Météo avec Met'info
Météo Marine avec MeteoMarine.net
Infos Site  |  Infos Légales  |  Crédits  |  Confidentialité
Contactez-nous  |  Ajouter aux favoris
© 2013-2019 METAR - Tous droits réservés